GLO4161 SBTE-SBRF
Flight info
| Callsign | GLO4161 |
|---|---|
| Flight time | N/A |
| Altitude | 37000 |
| Route | DIKAK UZ7 GIDMI DCT KIMOK |
| Aircraft | B738/M-SDE2E3FGHIRWXY/LB1 |
Departure
| Time | 2026-04-26 20:16 |
|---|---|
| Airport | Senador Petrônio Portela Airport (SBTE) |
Arrival
| Time | N/A |
|---|---|
| Airport | Recife/Guararapes - Gilberto Freyre International Airport (SBRF) |
| Time | Latitude | Longitude | Altitude | Speed | Heading |
|---|---|---|---|---|---|
| 2026-04-26 20:13 | -5.06459 | -42.82192 | 221 ft | 6 kts | 199° |
| 2026-04-26 20:13 | -5.06507 | -42.82194 | 221 ft | 7 kts | 181° |
| 2026-04-26 20:13 | -5.06549 | -42.82206 | 222 ft | 9 kts | 208° |
| 2026-04-26 20:13 | -5.06602 | -42.82246 | 223 ft | 11 kts | 217° |
| 2026-04-26 20:14 | -5.06670 | -42.82287 | 223 ft | 13 kts | 201° |
| 2026-04-26 20:14 | -5.06762 | -42.82290 | 224 ft | 14 kts | 179° |
| 2026-04-26 20:14 | -5.06868 | -42.82284 | 226 ft | 16 kts | 175° |
| 2026-04-26 20:14 | -5.06958 | -42.82296 | 225 ft | 8 kts | 135° |
| 2026-04-26 20:15 | -5.06953 | -42.82280 | 227 ft | 2 kts | 22° |
| 2026-04-26 20:15 | -5.06936 | -42.82281 | 226 ft | 0 kts | 353° |
| 2026-04-26 20:15 | -5.06934 | -42.82281 | 226 ft | 5 kts | 353° |
| 2026-04-26 20:15 | -5.06649 | -42.82307 | 223 ft | 80 kts | 355° |
| 2026-04-26 20:16 | -5.05843 | -42.82390 | 213 ft | 150 kts | 354° |
| 2026-04-26 20:16 | -5.04649 | -42.82504 | 433 ft | 188 kts | 356° |
| 2026-04-26 20:16 | -5.03281 | -42.82637 | 1149 ft | 204 kts | 356° |
| 2026-04-26 20:16 | -5.01887 | -42.82769 | 2126 ft | 202 kts | 355° |
| 2026-04-26 20:17 | -5.00466 | -42.82917 | 2875 ft | 215 kts | 355° |
| 2026-04-26 20:17 | -4.98890 | -42.82843 | 3085 ft | 241 kts | 21° |
| 2026-04-26 20:17 | -4.97562 | -42.81821 | 3666 ft | 246 kts | 60° |
| 2026-04-26 20:17 | -4.97166 | -42.80748 | 4260 ft | 243 kts | 85° |
| 2026-04-26 20:18 | -4.97813 | -42.78673 | 5338 ft | 243 kts | 130° |
| 2026-04-26 20:18 | -4.98841 | -42.77309 | 6115 ft | 247 kts | 120° |
| 2026-04-26 20:18 | -4.99473 | -42.75698 | 6853 ft | 251 kts | 101° |
| 2026-04-26 20:18 | -4.99519 | -42.73940 | 7597 ft | 255 kts | 83° |
| 2026-04-26 20:19 | -4.99230 | -42.72170 | 8346 ft | 259 kts | 81° |
| 2026-04-26 20:19 | -4.98920 | -42.70373 | 9093 ft | 263 kts | 82° |
| 2026-04-26 20:19 | -4.98654 | -42.68544 | 9857 ft | 266 kts | 83° |
| 2026-04-26 20:19 | -4.98433 | -42.66693 | 10543 ft | 269 kts | 84° |
| 2026-04-26 20:20 | -4.98234 | -42.64815 | 11234 ft | 272 kts | 85° |
| 2026-04-26 20:20 | -4.98047 | -42.62953 | 11880 ft | 277 kts | 85° |
| 2026-04-26 20:20 | -4.97870 | -42.61012 | 12542 ft | 281 kts | 89° |
| 2026-04-26 20:20 | -4.98259 | -42.59093 | 13135 ft | 288 kts | 115° |
| 2026-04-26 20:21 | -4.99401 | -42.57361 | 13335 ft | 309 kts | 129° |
| 2026-04-26 20:21 | -5.00846 | -42.55659 | 13517 ft | 331 kts | 131° |
| 2026-04-26 20:21 | -5.02406 | -42.53897 | 13670 ft | 352 kts | 131° |
| 2026-04-26 20:21 | -5.04076 | -42.52016 | 13802 ft | 371 kts | 131° |
| 2026-04-26 20:22 | -5.05820 | -42.50036 | 14016 ft | 384 kts | 131° |
| 2026-04-26 20:22 | -5.07595 | -42.47999 | 14450 ft | 390 kts | 131° |
| 2026-04-26 20:22 | -5.09382 | -42.45936 | 14987 ft | 392 kts | 130° |
| 2026-04-26 20:22 | -5.11174 | -42.43857 | 15529 ft | 394 kts | 130° |
| 2026-04-26 20:23 | -5.12975 | -42.41761 | 16026 ft | 398 kts | 130° |